sensor_id;sensor_type;location;lat;lon;timestamp;P1;durP1;ratioP1;P2;durP2;ratioP2
39956;SDS011;48483;44.640;7.494;2023-11-21T00:01:17;32.13;;;24.30;;
39956;SDS011;48483;44.640;7.494;2023-11-21T00:03:43;36.03;;;25.27;;
39956;SDS011;48483;44.640;7.494;2023-11-21T00:06:10;30.10;;;25.45;;
39956;SDS011;48483;44.640;7.494;2023-11-21T00:08:37;31.42;;;25.33;;
39956;SDS011;48483;44.640;7.494;2023-11-21T00:11:04;34.25;;;26.48;;
39956;SDS011;48483;44.640;7.494;2023-11-21T00:13:33;35.55;;;27.70;;
39956;SDS011;48483;44.640;7.494;2023-11-21T00:16:01;30.58;;;25.70;;
39956;SDS011;48483;44.640;7.494;2023-11-21T00:18:29;32.65;;;25.17;;
39956;SDS011;48483;44.640;7.494;2023-11-21T00:20:55;30.67;;;25.77;;
39956;SDS011;48483;44.640;7.494;2023-11-21T00:23:24;32.83;;;26.23;;
39956;SDS011;48483;44.640;7.494;2023-11-21T00:25:51;33.58;;;26.00;;
39956;SDS011;48483;44.640;7.494;2023-11-21T00:28:18;35.67;;;26.85;;
39956;SDS011;48483;44.640;7.494;2023-11-21T00:30:45;32.42;;;25.67;;
39956;SDS011;48483;44.640;7.494;2023-11-21T00:33:12;32.88;;;26.13;;
39956;SDS011;48483;44.640;7.494;2023-11-21T00:35:40;35.83;;;26.40;;
39956;SDS011;48483;44.640;7.494;2023-11-21T00:38:07;32.25;;;26.17;;
39956;SDS011;48483;44.640;7.494;2023-11-21T00:40:35;38.92;;;29.23;;
39956;SDS011;48483;44.640;7.494;2023-11-21T00:43:01;37.15;;;27.27;;
39956;SDS011;48483;44.640;7.494;2023-11-21T00:45:28;34.80;;;26.75;;
39956;SDS011;48483;44.640;7.494;2023-11-21T00:47:55;39.20;;;26.92;;
39956;SDS011;48483;44.640;7.494;2023-11-21T00:50:22;35.47;;;26.63;;
39956;SDS011;48483;44.640;7.494;2023-11-21T00:52:50;31.15;;;25.83;;
39956;SDS011;48483;44.640;7.494;2023-11-21T00:55:17;33.83;;;27.38;;
39956;SDS011;48483;44.640;7.494;2023-11-21T00:57:44;34.17;;;25.95;;
39956;SDS011;48483;44.640;7.494;2023-11-21T01:00:11;33.97;;;25.17;;
39956;SDS011;48483;44.640;7.494;2023-11-21T01:02:43;32.15;;;26.50;;
39956;SDS011;48483;44.640;7.494;2023-11-21T01:05:11;35.03;;;27.00;;
39956;SDS011;48483;44.640;7.494;2023-11-21T01:07:37;38.92;;;26.52;;
39956;SDS011;48483;44.640;7.494;2023-11-21T01:10:06;37.35;;;28.52;;
39956;SDS011;48483;44.640;7.494;2023-11-21T01:12:34;35.27;;;28.97;;
39956;SDS011;48483;44.640;7.494;2023-11-21T01:15:01;34.03;;;27.15;;
39956;SDS011;48483;44.640;7.494;2023-11-21T01:17:29;33.63;;;26.75;;
39956;SDS011;48483;44.640;7.494;2023-11-21T01:19:56;32.33;;;25.33;;
39956;SDS011;48483;44.640;7.494;2023-11-21T01:22:24;35.97;;;26.65;;
39956;SDS011;48483;44.640;7.494;2023-11-21T01:24:53;36.45;;;26.48;;
39956;SDS011;48483;44.640;7.494;2023-11-21T01:27:21;33.85;;;26.65;;
39956;SDS011;48483;44.640;7.494;2023-11-21T01:29:48;37.13;;;27.52;;
39956;SDS011;48483;44.640;7.494;2023-11-21T01:32:15;33.63;;;27.02;;
39956;SDS011;48483;44.640;7.494;2023-11-21T01:34:42;40.92;;;30.10;;
39956;SDS011;48483;44.640;7.494;2023-11-21T01:37:09;38.83;;;27.02;;
39956;SDS011;48483;44.640;7.494;2023-11-21T01:39:38;39.97;;;27.63;;
39956;SDS011;48483;44.640;7.494;2023-11-21T01:42:05;34.67;;;28.08;;
39956;SDS011;48483;44.640;7.494;2023-11-21T01:44:35;34.70;;;28.13;;
39956;SDS011;48483;44.640;7.494;2023-11-21T01:47:02;38.63;;;28.23;;
39956;SDS011;48483;44.640;7.494;2023-11-21T01:49:31;37.85;;;29.95;;
39956;SDS011;48483;44.640;7.494;2023-11-21T01:51:59;38.63;;;28.58;;
39956;SDS011;48483;44.640;7.494;2023-11-21T01:54:27;37.28;;;29.10;;
39956;SDS011;48483;44.640;7.494;2023-11-21T01:56:57;34.70;;;28.88;;
39956;SDS011;48483;44.640;7.494;2023-11-21T01:59:29;34.10;;;28.42;;
39956;SDS011;48483;44.640;7.494;2023-11-21T02:02:02;36.63;;;30.05;;
39956;SDS011;48483;44.640;7.494;2023-11-21T02:04:31;35.90;;;28.65;;
39956;SDS011;48483;44.640;7.494;2023-11-21T02:06:58;41.47;;;31.08;;
39956;SDS011;48483;44.640;7.494;2023-11-21T02:09:25;35.65;;;30.83;;
39956;SDS011;48483;44.640;7.494;2023-11-21T02:11:53;37.85;;;29.83;;
39956;SDS011;48483;44.640;7.494;2023-11-21T02:14:20;38.65;;;29.60;;
39956;SDS011;48483;44.640;7.494;2023-11-21T02:16:50;42.13;;;29.85;;
39956;SDS011;48483;44.640;7.494;2023-11-21T02:19:18;39.13;;;31.85;;
39956;SDS011;48483;44.640;7.494;2023-11-21T02:21:46;35.78;;;31.30;;
39956;SDS011;48483;44.640;7.494;2023-11-21T02:24:17;36.28;;;29.88;;
39956;SDS011;48483;44.640;7.494;2023-11-21T02:26:44;38.92;;;30.38;;
39956;SDS011;48483;44.640;7.494;2023-11-21T02:29:11;38.38;;;30.27;;
39956;SDS011;48483;44.640;7.494;2023-11-21T02:31:39;36.22;;;28.73;;
39956;SDS011;48483;44.640;7.494;2023-11-21T02:34:13;34.50;;;27.65;;
39956;SDS011;48483;44.640;7.494;2023-11-21T02:36:42;40.58;;;27.80;;
39956;SDS011;48483;44.640;7.494;2023-11-21T02:39:09;36.90;;;27.73;;
39956;SDS011;48483;44.640;7.494;2023-11-21T02:41:38;36.25;;;28.67;;
39956;SDS011;48483;44.640;7.494;2023-11-21T02:44:05;35.70;;;27.05;;
39956;SDS011;48483;44.640;7.494;2023-11-21T02:46:32;34.15;;;27.50;;
39956;SDS011;48483;44.640;7.494;2023-11-21T02:49:00;35.17;;;28.45;;
39956;SDS011;48483;44.640;7.494;2023-11-21T02:51:27;35.15;;;27.85;;
39956;SDS011;48483;44.640;7.494;2023-11-21T02:53:54;33.50;;;27.42;;
39956;SDS011;48483;44.640;7.494;2023-11-21T02:56:24;37.05;;;27.98;;
39956;SDS011;48483;44.640;7.494;2023-11-21T02:58:55;34.88;;;25.90;;
39956;SDS011;48483;44.640;7.494;2023-11-21T03:01:22;33.38;;;25.30;;
39956;SDS011;48483;44.640;7.494;2023-11-21T03:03:52;35.78;;;27.15;;
39956;SDS011;48483;44.640;7.494;2023-11-21T03:06:19;31.95;;;28.48;;
39956;SDS011;48483;44.640;7.494;2023-11-21T03:08:46;37.67;;;27.45;;
39956;SDS011;48483;44.640;7.494;2023-11-21T03:11:13;38.75;;;27.42;;
39956;SDS011;48483;44.640;7.494;2023-11-21T03:13:40;38.92;;;27.75;;
39956;SDS011;48483;44.640;7.494;2023-11-21T03:16:11;35.92;;;28.90;;
39956;SDS011;48483;44.640;7.494;2023-11-21T03:18:39;35.20;;;27.15;;
39956;SDS011;48483;44.640;7.494;2023-11-21T03:21:06;36.58;;;28.15;;
39956;SDS011;48483;44.640;7.494;2023-11-21T03:23:36;41.53;;;26.30;;
39956;SDS011;48483;44.640;7.494;2023-11-21T03:26:03;36.88;;;28.00;;
39956;SDS011;48483;44.640;7.494;2023-11-21T03:28:30;35.60;;;26.67;;
39956;SDS011;48483;44.640;7.494;2023-11-21T03:30:57;36.05;;;26.70;;
39956;SDS011;48483;44.640;7.494;2023-11-21T03:33:25;36.88;;;28.73;;
39956;SDS011;48483;44.640;7.494;2023-11-21T03:35:52;37.22;;;28.63;;
39956;SDS011;48483;44.640;7.494;2023-11-21T03:38:19;41.90;;;29.63;;
39956;SDS011;48483;44.640;7.494;2023-11-21T03:40:46;38.13;;;29.20;;
39956;SDS011;48483;44.640;7.494;2023-11-21T03:43:13;35.45;;;30.08;;
39956;SDS011;48483;44.640;7.494;2023-11-21T03:45:40;38.65;;;27.98;;
39956;SDS011;48483;44.640;7.494;2023-11-21T03:48:07;34.70;;;27.63;;
39956;SDS011;48483;44.640;7.494;2023-11-21T03:50:38;39.97;;;29.60;;
39956;SDS011;48483;44.640;7.494;2023-11-21T03:53:06;36.40;;;28.88;;
39956;SDS011;48483;44.640;7.494;2023-11-21T03:55:33;38.50;;;28.92;;
39956;SDS011;48483;44.640;7.494;2023-11-21T03:57:59;41.35;;;31.38;;
39956;SDS011;48483;44.640;7.494;2023-11-21T04:00:27;36.20;;;29.67;;
39956;SDS011;48483;44.640;7.494;2023-11-21T04:02:53;38.22;;;31.33;;
39956;SDS011;48483;44.640;7.494;2023-11-21T04:05:20;43.58;;;30.80;;
39956;SDS011;48483;44.640;7.494;2023-11-21T04:07:49;38.25;;;31.20;;
39956;SDS011;48483;44.640;7.494;2023-11-21T04:10:17;46.40;;;32.60;;
39956;SDS011;48483;44.640;7.494;2023-11-21T04:12:44;44.38;;;32.83;;
39956;SDS011;48483;44.640;7.494;2023-11-21T04:15:11;50.42;;;34.17;;
39956;SDS011;48483;44.640;7.494;2023-11-21T04:17:41;34.65;;;26.15;;
39956;SDS011;48483;44.640;7.494;2023-11-21T04:20:08;40.50;;;31.58;;
39956;SDS011;48483;44.640;7.494;2023-11-21T04:22:36;42.30;;;32.72;;
39956;SDS011;48483;44.640;7.494;2023-11-21T04:27:36;36.53;;;29.52;;
39956;SDS011;48483;44.640;7.494;2023-11-21T04:30:05;40.47;;;32.97;;
39956;SDS011;48483;44.640;7.494;2023-11-21T04:32:32;43.92;;;33.63;;
39956;SDS011;48483;44.640;7.494;2023-11-21T04:34:59;41.20;;;32.67;;
39956;SDS011;48483;44.640;7.494;2023-11-21T04:37:26;41.38;;;32.95;;
39956;SDS011;48483;44.640;7.494;2023-11-21T04:39:53;38.53;;;32.45;;
39956;SDS011;48483;44.640;7.494;2023-11-21T04:42:21;38.33;;;32.33;;
39956;SDS011;48483;44.640;7.494;2023-11-21T04:44:48;36.13;;;30.80;;
39956;SDS011;48483;44.640;7.494;2023-11-21T04:47:14;34.60;;;30.73;;
39956;SDS011;48483;44.640;7.494;2023-11-21T04:49:42;34.17;;;29.85;;
39956;SDS011;48483;44.640;7.494;2023-11-21T04:52:09;36.13;;;30.55;;
39956;SDS011;48483;44.640;7.494;2023-11-21T04:54:36;39.50;;;31.15;;
39956;SDS011;48483;44.640;7.494;2023-11-21T04:57:03;33.85;;;29.00;;
39956;SDS011;48483;44.640;7.494;2023-11-21T04:59:32;35.58;;;30.42;;
39956;SDS011;48483;44.640;7.494;2023-11-21T05:01:59;37.40;;;30.20;;
39956;SDS011;48483;44.640;7.494;2023-11-21T05:04:26;35.95;;;30.92;;
39956;SDS011;48483;44.640;7.494;2023-11-21T05:06:53;37.10;;;29.58;;
39956;SDS011;48483;44.640;7.494;2023-11-21T05:09:19;37.30;;;31.27;;
39956;SDS011;48483;44.640;7.494;2023-11-21T05:11:48;35.70;;;29.25;;
39956;SDS011;48483;44.640;7.494;2023-11-21T05:14:14;39.92;;;31.17;;
39956;SDS011;48483;44.640;7.494;2023-11-21T05:16:42;43.13;;;32.15;;
39956;SDS011;48483;44.640;7.494;2023-11-21T05:19:09;36.95;;;30.38;;
39956;SDS011;48483;44.640;7.494;2023-11-21T05:21:37;36.20;;;31.25;;
39956;SDS011;48483;44.640;7.494;2023-11-21T05:24:04;36.80;;;32.00;;
39956;SDS011;48483;44.640;7.494;2023-11-21T05:26:32;42.67;;;31.83;;
39956;SDS011;48483;44.640;7.494;2023-11-21T05:28:58;36.45;;;31.30;;
39956;SDS011;48483;44.640;7.494;2023-11-21T05:31:25;36.78;;;30.25;;
39956;SDS011;48483;44.640;7.494;2023-11-21T05:33:54;38.53;;;31.55;;
39956;SDS011;48483;44.640;7.494;2023-11-21T05:36:21;40.40;;;32.55;;
39956;SDS011;48483;44.640;7.494;2023-11-21T05:38:48;35.45;;;30.80;;
39956;SDS011;48483;44.640;7.494;2023-11-21T05:41:15;36.85;;;31.77;;
39956;SDS011;48483;44.640;7.494;2023-11-21T05:43:41;40.03;;;31.75;;
39956;SDS011;48483;44.640;7.494;2023-11-21T05:46:08;33.80;;;29.95;;
39956;SDS011;48483;44.640;7.494;2023-11-21T05:48:35;36.78;;;31.02;;
39956;SDS011;48483;44.640;7.494;2023-11-21T05:51:04;37.45;;;30.73;;
39956;SDS011;48483;44.640;7.494;2023-11-21T05:53:32;35.88;;;30.25;;
39956;SDS011;48483;44.640;7.494;2023-11-21T05:55:59;35.10;;;30.38;;
39956;SDS011;48483;44.640;7.494;2023-11-21T05:58:25;37.85;;;32.67;;
39956;SDS011;48483;44.640;7.494;2023-11-21T06:00:52;37.08;;;31.80;;
39956;SDS011;48483;44.640;7.494;2023-11-21T06:03:19;36.28;;;30.90;;
39956;SDS011;48483;44.640;7.494;2023-11-21T06:05:46;37.85;;;31.27;;
39956;SDS011;48483;44.640;7.494;2023-11-21T06:08:14;36.58;;;31.17;;
39956;SDS011;48483;44.640;7.494;2023-11-21T06:10:42;38.83;;;30.17;;
39956;SDS011;48483;44.640;7.494;2023-11-21T06:13:15;37.28;;;30.80;;
39956;SDS011;48483;44.640;7.494;2023-11-21T06:15:42;35.13;;;30.50;;
39956;SDS011;48483;44.640;7.494;2023-11-21T06:18:27;36.78;;;32.63;;
39956;SDS011;48483;44.640;7.494;2023-11-21T06:20:54;36.72;;;30.50;;
39956;SDS011;48483;44.640;7.494;2023-11-21T06:23:22;40.47;;;31.05;;
39956;SDS011;48483;44.640;7.494;2023-11-21T06:25:49;38.95;;;31.23;;
39956;SDS011;48483;44.640;7.494;2023-11-21T06:28:15;37.05;;;30.52;;
39956;SDS011;48483;44.640;7.494;2023-11-21T06:30:43;37.03;;;30.98;;
39956;SDS011;48483;44.640;7.494;2023-11-21T06:33:14;36.80;;;31.67;;
39956;SDS011;48483;44.640;7.494;2023-11-21T06:35:42;38.33;;;30.55;;
39956;SDS011;48483;44.640;7.494;2023-11-21T06:38:08;35.58;;;31.27;;
39956;SDS011;48483;44.640;7.494;2023-11-21T06:40:37;36.10;;;30.85;;
39956;SDS011;48483;44.640;7.494;2023-11-21T06:43:04;35.67;;;29.77;;
39956;SDS011;48483;44.640;7.494;2023-11-21T06:45:33;37.03;;;31.05;;
39956;SDS011;48483;44.640;7.494;2023-11-21T06:48:00;36.90;;;30.10;;
39956;SDS011;48483;44.640;7.494;2023-11-21T06:50:27;45.17;;;32.92;;
39956;SDS011;48483;44.640;7.494;2023-11-21T06:52:53;33.50;;;29.58;;
39956;SDS011;48483;44.640;7.494;2023-11-21T06:55:20;37.40;;;31.90;;
39956;SDS011;48483;44.640;7.494;2023-11-21T06:57:48;36.90;;;30.48;;
39956;SDS011;48483;44.640;7.494;2023-11-21T07:00:15;39.03;;;32.13;;
39956;SDS011;48483;44.640;7.494;2023-11-21T07:02:44;42.45;;;30.20;;
39956;SDS011;48483;44.640;7.494;2023-11-21T07:05:10;37.90;;;31.55;;
39956;SDS011;48483;44.640;7.494;2023-11-21T07:07:37;39.55;;;31.55;;
39956;SDS011;48483;44.640;7.494;2023-11-21T07:10:05;42.05;;;32.90;;
39956;SDS011;48483;44.640;7.494;2023-11-21T07:12:32;44.38;;;33.17;;
39956;SDS011;48483;44.640;7.494;2023-11-21T07:15:00;48.80;;;32.42;;
39956;SDS011;48483;44.640;7.494;2023-11-21T07:17:27;39.38;;;32.90;;
39956;SDS011;48483;44.640;7.494;2023-11-21T07:19:53;44.25;;;34.05;;
39956;SDS011;48483;44.640;7.494;2023-11-21T07:22:21;38.78;;;32.78;;
39956;SDS011;48483;44.640;7.494;2023-11-21T07:24:48;43.72;;;34.15;;
39956;SDS011;48483;44.640;7.494;2023-11-21T07:27:16;41.78;;;33.03;;
39956;SDS011;48483;44.640;7.494;2023-11-21T07:29:43;43.60;;;34.17;;
39956;SDS011;48483;44.640;7.494;2023-11-21T07:32:12;42.22;;;34.72;;
39956;SDS011;48483;44.640;7.494;2023-11-21T07:34:39;53.42;;;35.13;;
39956;SDS011;48483;44.640;7.494;2023-11-21T07:37:07;44.10;;;32.63;;
39956;SDS011;48483;44.640;7.494;2023-11-21T07:39:34;40.17;;;32.95;;
39956;SDS011;48483;44.640;7.494;2023-11-21T07:42:07;49.75;;;33.85;;
39956;SDS011;48483;44.640;7.494;2023-11-21T07:44:35;45.85;;;32.97;;
39956;SDS011;48483;44.640;7.494;2023-11-21T07:47:01;38.40;;;30.92;;
39956;SDS011;48483;44.640;7.494;2023-11-21T07:49:30;40.95;;;31.17;;
39956;SDS011;48483;44.640;7.494;2023-11-21T07:51:56;40.85;;;33.53;;
39956;SDS011;48483;44.640;7.494;2023-11-21T07:54:23;46.97;;;33.65;;
39956;SDS011;48483;44.640;7.494;2023-11-21T07:56:50;42.22;;;32.45;;
39956;SDS011;48483;44.640;7.494;2023-11-21T07:59:17;41.05;;;32.22;;
39956;SDS011;48483;44.640;7.494;2023-11-21T08:01:44;39.05;;;32.38;;
39956;SDS011;48483;44.640;7.494;2023-11-21T08:04:11;44.83;;;34.22;;
39956;SDS011;48483;44.640;7.494;2023-11-21T08:06:40;47.85;;;33.03;;
39956;SDS011;48483;44.640;7.494;2023-11-21T08:09:07;43.55;;;33.13;;
39956;SDS011;48483;44.640;7.494;2023-11-21T08:11:34;42.38;;;32.55;;
39956;SDS011;48483;44.640;7.494;2023-11-21T08:14:01;46.33;;;32.22;;
39956;SDS011;48483;44.640;7.494;2023-11-21T08:16:27;44.72;;;33.97;;
39956;SDS011;48483;44.640;7.494;2023-11-21T08:18:54;43.80;;;33.83;;
39956;SDS011;48483;44.640;7.494;2023-11-21T08:21:21;48.05;;;35.08;;
39956;SDS011;48483;44.640;7.494;2023-11-21T08:23:51;41.70;;;34.08;;
39956;SDS011;48483;44.640;7.494;2023-11-21T08:26:20;41.97;;;31.55;;
39956;SDS011;48483;44.640;7.494;2023-11-21T08:28:46;39.78;;;30.70;;
39956;SDS011;48483;44.640;7.494;2023-11-21T08:31:13;38.25;;;28.65;;
39956;SDS011;48483;44.640;7.494;2023-11-21T08:33:40;40.72;;;31.55;;
39956;SDS011;48483;44.640;7.494;2023-11-21T08:36:07;39.53;;;31.10;;
39956;SDS011;48483;44.640;7.494;2023-11-21T08:38:35;42.63;;;31.75;;
39956;SDS011;48483;44.640;7.494;2023-11-21T08:41:06;38.22;;;30.35;;
39956;SDS011;48483;44.640;7.494;2023-11-21T08:43:34;39.85;;;32.22;;
39956;SDS011;48483;44.640;7.494;2023-11-21T08:46:00;38.60;;;31.10;;
39956;SDS011;48483;44.640;7.494;2023-11-21T08:48:27;41.03;;;31.08;;
39956;SDS011;48483;44.640;7.494;2023-11-21T08:50:55;41.70;;;31.65;;
39956;SDS011;48483;44.640;7.494;2023-11-21T08:53:22;38.20;;;30.55;;
39956;SDS011;48483;44.640;7.494;2023-11-21T08:55:49;39.92;;;29.10;;
39956;SDS011;48483;44.640;7.494;2023-11-21T08:58:17;36.92;;;28.63;;
39956;SDS011;48483;44.640;7.494;2023-11-21T09:00:44;43.40;;;32.28;;
39956;SDS011;48483;44.640;7.494;2023-11-21T09:03:12;40.33;;;29.60;;
39956;SDS011;48483;44.640;7.494;2023-11-21T09:05:39;36.15;;;28.65;;
39956;SDS011;48483;44.640;7.494;2023-11-21T09:08:06;35.30;;;28.23;;
39956;SDS011;48483;44.640;7.494;2023-11-21T09:10:35;39.10;;;28.52;;
39956;SDS011;48483;44.640;7.494;2023-11-21T09:13:02;35.67;;;29.08;;
39956;SDS011;48483;44.640;7.494;2023-11-21T09:15:30;34.90;;;26.98;;
39956;SDS011;48483;44.640;7.494;2023-11-21T09:17:57;31.50;;;25.25;;
39956;SDS011;48483;44.640;7.494;2023-11-21T09:20:24;32.95;;;25.63;;
39956;SDS011;48483;44.640;7.494;2023-11-21T09:22:50;30.77;;;24.27;;
39956;SDS011;48483;44.640;7.494;2023-11-21T09:25:17;30.90;;;24.15;;
39956;SDS011;48483;44.640;7.494;2023-11-21T09:27:44;33.00;;;25.50;;
39956;SDS011;48483;44.640;7.494;2023-11-21T09:30:12;33.22;;;25.60;;
39956;SDS011;48483;44.640;7.494;2023-11-21T09:32:41;32.30;;;23.98;;
39956;SDS011;48483;44.640;7.494;2023-11-21T09:35:11;34.08;;;25.55;;
39956;SDS011;48483;44.640;7.494;2023-11-21T09:37:39;33.00;;;27.33;;
39956;SDS011;48483;44.640;7.494;2023-11-21T09:40:07;31.48;;;25.38;;
39956;SDS011;48483;44.640;7.494;2023-11-21T09:42:39;32.85;;;25.20;;
39956;SDS011;48483;44.640;7.494;2023-11-21T09:47:43;38.95;;;27.35;;
39956;SDS011;48483;44.640;7.494;2023-11-21T09:50:10;37.25;;;27.67;;
39956;SDS011;48483;44.640;7.494;2023-11-21T09:52:39;34.17;;;28.27;;
39956;SDS011;48483;44.640;7.494;2023-11-21T09:55:15;36.53;;;28.45;;
39956;SDS011;48483;44.640;7.494;2023-11-21T09:57:44;37.30;;;29.85;;
39956;SDS011;48483;44.640;7.494;2023-11-21T10:00:12;39.55;;;30.33;;
39956;SDS011;48483;44.640;7.494;2023-11-21T10:02:45;38.90;;;32.13;;
39956;SDS011;48483;44.640;7.494;2023-11-21T10:05:12;42.67;;;32.55;;
39956;SDS011;48483;44.640;7.494;2023-11-21T10:07:39;43.38;;;35.08;;
39956;SDS011;48483;44.640;7.494;2023-11-21T10:10:09;43.92;;;34.35;;
39956;SDS011;48483;44.640;7.494;2023-11-21T10:12:36;40.88;;;33.05;;
39956;SDS011;48483;44.640;7.494;2023-11-21T10:15:06;41.45;;;34.15;;
39956;SDS011;48483;44.640;7.494;2023-11-21T10:17:34;40.05;;;34.33;;
39956;SDS011;48483;44.640;7.494;2023-11-21T10:20:10;42.10;;;34.92;;
39956;SDS011;48483;44.640;7.494;2023-11-21T10:22:39;40.47;;;32.58;;
39956;SDS011;48483;44.640;7.494;2023-11-21T10:25:10;43.80;;;36.28;;
39956;SDS011;48483;44.640;7.494;2023-11-21T10:27:36;40.75;;;33.08;;
39956;SDS011;48483;44.640;7.494;2023-11-21T10:30:07;40.67;;;34.40;;
39956;SDS011;48483;44.640;7.494;2023-11-21T10:32:37;45.67;;;34.50;;
39956;SDS011;48483;44.640;7.494;2023-11-21T10:35:05;41.92;;;33.88;;
39956;SDS011;48483;44.640;7.494;2023-11-21T10:37:37;38.70;;;34.30;;
39956;SDS011;48483;44.640;7.494;2023-11-21T10:40:07;39.13;;;33.58;;
39956;SDS011;48483;44.640;7.494;2023-11-21T10:42:37;39.65;;;33.15;;
39956;SDS011;48483;44.640;7.494;2023-11-21T10:45:05;39.72;;;35.38;;
39956;SDS011;48483;44.640;7.494;2023-11-21T10:47:39;40.47;;;34.35;;
39956;SDS011;48483;44.640;7.494;2023-11-21T10:50:06;45.65;;;35.25;;
39956;SDS011;48483;44.640;7.494;2023-11-21T10:52:39;39.90;;;33.70;;
39956;SDS011;48483;44.640;7.494;2023-11-21T10:55:15;43.22;;;35.35;;
39956;SDS011;48483;44.640;7.494;2023-11-21T10:57:43;42.55;;;35.33;;
39956;SDS011;48483;44.640;7.494;2023-11-21T11:00:14;38.00;;;33.10;;
39956;SDS011;48483;44.640;7.494;2023-11-21T11:02:42;39.63;;;35.25;;
39956;SDS011;48483;44.640;7.494;2023-11-21T11:05:09;43.72;;;36.13;;
39956;SDS011;48483;44.640;7.494;2023-11-21T11:07:38;42.45;;;36.25;;
39956;SDS011;48483;44.640;7.494;2023-11-21T11:10:09;41.45;;;35.63;;
39956;SDS011;48483;44.640;7.494;2023-11-21T11:12:40;42.65;;;38.15;;
39956;SDS011;48483;44.640;7.494;2023-11-21T11:15:08;42.55;;;37.70;;
39956;SDS011;48483;44.640;7.494;2023-11-21T11:17:38;42.40;;;36.15;;
39956;SDS011;48483;44.640;7.494;2023-11-21T11:20:05;45.55;;;36.55;;
39956;SDS011;48483;44.640;7.494;2023-11-21T11:22:37;43.25;;;36.63;;
39956;SDS011;48483;44.640;7.494;2023-11-21T11:28:02;43.58;;;35.28;;
39956;SDS011;48483;44.640;7.494;2023-11-21T11:30:39;40.03;;;35.13;;
39956;SDS011;48483;44.640;7.494;2023-11-21T11:33:20;39.08;;;34.78;;
39956;SDS011;48483;44.640;7.494;2023-11-21T11:35:52;39.10;;;33.60;;
39956;SDS011;48483;44.640;7.494;2023-11-21T11:38:28;41.83;;;35.75;;
39956;SDS011;48483;44.640;7.494;2023-11-21T11:41:01;45.88;;;35.33;;
39956;SDS011;48483;44.640;7.494;2023-11-21T11:43:31;44.50;;;35.28;;
39956;SDS011;48483;44.640;7.494;2023-11-21T11:46:02;47.53;;;37.83;;
39956;SDS011;48483;44.640;7.494;2023-11-21T11:48:29;41.70;;;35.20;;
39956;SDS011;48483;44.640;7.494;2023-11-21T11:51:01;41.10;;;36.53;;
39956;SDS011;48483;44.640;7.494;2023-11-21T11:53:34;42.03;;;35.13;;
39956;SDS011;48483;44.640;7.494;2023-11-21T11:56:22;45.67;;;37.10;;
39956;SDS011;48483;44.640;7.494;2023-11-21T11:58:54;44.58;;;36.25;;
39956;SDS011;48483;44.640;7.494;2023-11-21T12:01:22;39.78;;;35.38;;
39956;SDS011;48483;44.640;7.494;2023-11-21T12:07:00;47.87;;;35.63;;
39956;SDS011;48483;44.640;7.494;2023-11-21T12:09:31;42.97;;;36.45;;
39956;SDS011;48483;44.640;7.494;2023-11-21T12:11:58;39.70;;;35.03;;
39956;SDS011;48483;44.640;7.494;2023-11-21T12:14:26;40.47;;;35.92;;
39956;SDS011;48483;44.640;7.494;2023-11-21T12:16:52;39.13;;;34.88;;
39956;SDS011;48483;44.640;7.494;2023-11-21T12:19:19;42.03;;;34.85;;
39956;SDS011;48483;44.640;7.494;2023-11-21T12:21:47;41.60;;;37.05;;
39956;SDS011;48483;44.640;7.494;2023-11-21T12:24:14;42.50;;;37.95;;
39956;SDS011;48483;44.640;7.494;2023-11-21T12:26:43;48.58;;;40.50;;
39956;SDS011;48483;44.640;7.494;2023-11-21T12:29:10;44.65;;;39.35;;
39956;SDS011;48483;44.640;7.494;2023-11-21T12:31:37;43.15;;;38.30;;
39956;SDS011;48483;44.640;7.494;2023-11-21T12:34:04;46.05;;;40.05;;
39956;SDS011;48483;44.640;7.494;2023-11-21T12:36:32;43.63;;;38.08;;
39956;SDS011;48483;44.640;7.494;2023-11-21T12:39:00;50.05;;;41.20;;
39956;SDS011;48483;44.640;7.494;2023-11-21T12:41:29;46.30;;;38.55;;
39956;SDS011;48483;44.640;7.494;2023-11-21T12:43:57;49.80;;;41.78;;
39956;SDS011;48483;44.640;7.494;2023-11-21T12:46:24;47.33;;;40.83;;
39956;SDS011;48483;44.640;7.494;2023-11-21T12:48:55;45.92;;;41.00;;
39956;SDS011;48483;44.640;7.494;2023-11-21T12:51:23;53.63;;;42.55;;
39956;SDS011;48483;44.640;7.494;2023-11-21T12:53:51;45.60;;;40.72;;
39956;SDS011;48483;44.640;7.494;2023-11-21T12:56:19;49.63;;;41.95;;
39956;SDS011;48483;44.640;7.494;2023-11-21T13:01:19;50.72;;;41.22;;
39956;SDS011;48483;44.640;7.494;2023-11-21T13:03:47;50.33;;;42.28;;
39956;SDS011;48483;44.640;7.494;2023-11-21T13:06:17;50.20;;;42.83;;
39956;SDS011;48483;44.640;7.494;2023-11-21T13:08:45;47.58;;;42.33;;
39956;SDS011;48483;44.640;7.494;2023-11-21T13:11:12;46.08;;;40.13;;
39956;SDS011;48483;44.640;7.494;2023-11-21T13:13:40;46.80;;;41.88;;
39956;SDS011;48483;44.640;7.494;2023-11-21T13:16:11;50.13;;;42.97;;
39956;SDS011;48483;44.640;7.494;2023-11-21T13:18:40;51.70;;;41.63;;
39956;SDS011;48483;44.640;7.494;2023-11-21T13:21:07;48.90;;;43.58;;
39956;SDS011;48483;44.640;7.494;2023-11-21T13:23:43;51.60;;;42.58;;
39956;SDS011;48483;44.640;7.494;2023-11-21T13:26:12;48.10;;;42.92;;
39956;SDS011;48483;44.640;7.494;2023-11-21T13:28:40;47.35;;;41.65;;
39956;SDS011;48483;44.640;7.494;2023-11-21T13:31:11;49.85;;;42.67;;
39956;SDS011;48483;44.640;7.494;2023-11-21T13:33:50;52.90;;;42.72;;
39956;SDS011;48483;44.640;7.494;2023-11-21T13:36:21;49.35;;;43.00;;
39956;SDS011;48483;44.640;7.494;2023-11-21T13:38:49;50.25;;;42.92;;
39956;SDS011;48483;44.640;7.494;2023-11-21T13:41:16;49.25;;;42.58;;
39956;SDS011;48483;44.640;7.494;2023-11-21T13:43:44;47.90;;;42.75;;
39956;SDS011;48483;44.640;7.494;2023-11-21T13:46:16;55.90;;;44.85;;
39956;SDS011;48483;44.640;7.494;2023-11-21T13:48:47;53.28;;;43.35;;
39956;SDS011;48483;44.640;7.494;2023-11-21T13:51:22;49.85;;;44.45;;
39956;SDS011;48483;44.640;7.494;2023-11-21T13:53:57;52.22;;;46.58;;
39956;SDS011;48483;44.640;7.494;2023-11-21T13:56:25;51.58;;;45.95;;
39956;SDS011;48483;44.640;7.494;2023-11-21T13:58:52;52.78;;;45.40;;
39956;SDS011;48483;44.640;7.494;2023-11-21T14:01:19;49.67;;;44.25;;
39956;SDS011;48483;44.640;7.494;2023-11-21T14:03:58;51.92;;;44.22;;
39956;SDS011;48483;44.640;7.494;2023-11-21T14:06:34;48.78;;;43.10;;
39956;SDS011;48483;44.640;7.494;2023-11-21T14:09:11;52.33;;;45.65;;
39956;SDS011;48483;44.640;7.494;2023-11-21T14:11:39;52.13;;;43.50;;
39956;SDS011;48483;44.640;7.494;2023-11-21T14:14:06;50.03;;;41.90;;
39956;SDS011;48483;44.640;7.494;2023-11-21T14:16:33;49.17;;;41.80;;
39956;SDS011;48483;44.640;7.494;2023-11-21T14:19:01;51.03;;;42.00;;
39956;SDS011;48483;44.640;7.494;2023-11-21T14:21:39;49.28;;;43.83;;
39956;SDS011;48483;44.640;7.494;2023-11-21T14:24:09;52.47;;;42.38;;
39956;SDS011;48483;44.640;7.494;2023-11-21T14:26:35;46.17;;;41.30;;
39956;SDS011;48483;44.640;7.494;2023-11-21T14:29:02;50.92;;;41.47;;
39956;SDS011;48483;44.640;7.494;2023-11-21T14:31:29;55.20;;;41.55;;
39956;SDS011;48483;44.640;7.494;2023-11-21T14:33:57;50.25;;;44.10;;
39956;SDS011;48483;44.640;7.494;2023-11-21T14:36:26;48.65;;;42.42;;
39956;SDS011;48483;44.640;7.494;2023-11-21T14:38:53;51.28;;;44.67;;
39956;SDS011;48483;44.640;7.494;2023-11-21T14:41:20;47.33;;;41.40;;